Terminal Aerodrome Forecast
Issued by NWS Quad Cities IA IL

Home | Current Version | Previous Version | Text Only | Print | Product List | Glossary On
Versions: 1 2 3 4 5 6 7 8 9 10 11 12 13 14 15 16 17 18 19 20 21
244
FTUS43 KDVN 152344
TAFDBQ
TAF
KDBQ 152344Z 1600/1624 05006KT P6SM BKN250
     FM160800 11006KT P6SM VCSH SCT025
     FM161200 11007KT 4SM BR BKN015
     FM161600 12006KT P6SM VCSH SCT020 OVC070 PROB30 1620/1624 2SM
      SHRA BKN035 OVC050=

USA.gov is the U.S. government's official web portal to all federal, state and local government web resources and services.